メインページ
METAR-TAF:

METAR-TAF

空港 :

Cheboygan County Airport

Cheboygan, ミシガン州, アメリカ合衆国

緯度: 45-39-13N, 経度: 084-31-09W, 海抜: 195m

現時点の気象観測

当レポートは15分前の11:35(UTC)に作成
無風
気温 -9°C
湿度 85%
気圧 1024 hPa
視程: 16.1km
高度1100ftの曇り
小雪

METAR: KSLH 231135Z AUTO 00000KT 10SM -SN OVC011 M09/M11 A3024 RMK AO2

時間: 06:50 (11:50 UTC)


TAF: 見つかりません

4,000以上の空港の気象観測と天気予報(METAR報とTAF報)

利用可能な観測所は地図上に黄色い丸と赤い丸で示す。

丸の上にカーソルを重ねると観測所名を参照できる。

次にクリックすると気象観測と天気予報を参照できる。

マップの切り替え:黒色「×」印の緑ボタンをクリックして拡大、「-」印の緑ボタンをクリックして縮小、緑色の三角印をクリックして隣りの地図に切り替え


METAR-TAF: